Terminal Aerodrome Forecast
Issued by NWS Denver/Boulder, CO

Home | Current Version | Previous Version | Text Only | Print | Product List | Glossary On
Versions: 1 2 3 4 5 6 7 8 9 10 11 12 13 14 15 16 17 18 19 20 21 22 23 24 25 26 27 28 29 30 31 32 33 34 35 36 37 38
000
FTUS45 KBOU 231134
TAFDEN
TAF
KDEN 231134Z 2312/2418 18014G23KT P6SM SCT220
     FM231300 21011KT P6SM BKN220
     FM231500 24013KT P6SM SCT120 BKN200
     FM231600 28015KT P6SM SCT080 BKN180
     FM231900 32015KT P6SM SCT080 BKN150
     FM232200 35017G24KT P6SM VCSH SCT070 BKN140
     FM240200 34011KT P6SM SCT140 BKN200
     FM240800 25006KT P6SM FEW200=

USA.gov is the U.S. government's official web portal to all federal, state and local government web resources and services.